Terminal Aerodrome Forecast
Issued by NWS Charleston, WV

Current Version | Previous Version | Text Only | Print | Product List | Glossary Off
Versions: 1 2 3 4 5 6 7 8 9 10 11 12 13 14 15 16 17 18 19 20 21 22 23 24 25 26

000
FTUS41 KRLX 281741
TAFBKW
TAF
KBKW 281741Z 2818/2918 29008KT P6SM VCSH SCT015 OVC035
     FM282300 30007KT P6SM BKN015
     FM290200 32005KT 3SM BR BKN005 OVC015
     FM291500 01004KT P6SM OVC015=

USA.gov is the U.S. government's official web portal to all federal, state and local government web resources and services.